Time;durP1;ratioP1;P1;durP2;ratioP2;P2;SDS_P1;SDS_P2;PMS_P1;PMS_P2;Temp;Humidity;BMP_temperature;BMP_pressure;BME280_temperature;BME280_humidity;BME280_pressure;Samples;Min_cycle;Max_cycle;Signal;HPM_P1;HPM_P2
2023/03/19 00:02:07;;;;;;;0.10;0.10;;;12.00;99.90;;;;;;5016952;28;20798;-84
2023/03/19 00:04:32;;;;;;;0.10;0.10;;;12.00;99.90;;;;;;5017492;28;20193;-85
2023/03/19 00:06:58;;;;;;;0.10;0.10;;;12.10;99.90;;;;;;5016400;28;20186;-85
2023/03/19 00:09:23;;;;;;;0.10;0.10;;;12.10;99.90;;;;;;5017476;28;20211;-85
2023/03/19 00:11:49;;;;;;;0.10;0.10;;;12.00;99.90;;;;;;5015455;28;20190;-85
2023/03/19 00:14:16;;;;;;;0.10;0.10;;;12.10;99.90;;;;;;5016280;28;20238;-84
2023/03/19 00:16:41;;;;;;;0.10;0.10;;;12.10;99.90;;;;;;5034876;28;20699;-86
2023/03/19 00:19:07;;;;;;;0.10;0.10;;;12.10;99.90;;;;;;5016232;28;20208;-85
2023/03/19 00:21:33;;;;;;;0.10;0.10;;;12.10;99.90;;;;;;5015257;28;20196;-85
2023/03/19 00:24:01;;;;;;;0.00;0.00;;;12.10;99.90;;;;;;5017058;28;20201;-84
2023/03/19 00:26:31;;;;;;;0.10;0.10;;;12.00;99.90;;;;;;5034521;28;20182;-84
2023/03/19 00:28:57;;;;;;;0.10;0.10;;;11.90;99.90;;;;;;5016304;28;20305;-84
2023/03/19 00:31:24;;;;;;;0.10;0.10;;;11.80;99.90;;;;;;5028899;28;20798;-85
2023/03/19 00:33:50;;;;;;;0.00;0.00;;;11.70;99.90;;;;;;5016253;28;20213;-85
2023/03/19 00:36:16;;;;;;;0.10;0.10;;;11.60;99.90;;;;;;5016089;28;20187;-85
2023/03/19 00:38:42;;;;;;;0.10;0.10;;;11.60;99.90;;;;;;5033222;28;20213;-85
2023/03/19 00:41:08;;;;;;;0.10;0.10;;;11.50;99.90;;;;;;5016431;28;20186;-84
2023/03/19 00:43:34;;;;;;;0.10;0.10;;;11.50;99.90;;;;;;5016807;28;20922;-84
2023/03/19 00:46:00;;;;;;;0.10;0.10;;;11.50;99.90;;;;;;5015199;28;20670;-85
2023/03/19 00:48:26;;;;;;;0.10;0.10;;;11.60;99.90;;;;;;5011506;28;20186;-84
2023/03/19 00:50:51;;;;;;;0.10;0.10;;;11.60;99.90;;;;;;5031698;28;20179;-85
2023/03/19 00:53:17;;;;;;;0.10;0.10;;;11.60;99.90;;;;;;5015172;28;20187;-84
2023/03/19 00:55:43;;;;;;;0.10;0.10;;;11.60;99.90;;;;;;5034565;28;20250;-85
2023/03/19 00:58:09;;;;;;;0.10;0.10;;;11.40;99.90;;;;;;5023573;28;20270;-85
2023/03/19 01:00:36;;;;;;;0.10;0.10;;;11.20;99.90;;;;;;5015773;28;20206;-84
2023/03/19 01:03:02;;;;;;;0.10;0.10;;;11.00;99.90;;;;;;5014685;28;20262;-85
2023/03/19 01:05:28;;;;;;;0.10;0.10;;;10.90;99.90;;;;;;5014896;28;20186;-84
2023/03/19 01:07:54;;;;;;;0.10;0.10;;;10.90;99.90;;;;;;5016011;28;21081;-85
2023/03/19 01:10:21;;;;;;;0.10;0.10;;;11.10;99.90;;;;;;5033049;28;20232;-85
2023/03/19 01:12:47;;;;;;;0.10;0.10;;;11.20;99.90;;;;;;5031319;28;20186;-85
2023/03/19 01:15:13;;;;;;;0.10;0.10;;;11.30;99.90;;;;;;5014922;28;20224;-84
2023/03/19 01:17:39;;;;;;;0.10;0.10;;;11.30;99.90;;;;;;5016574;28;20178;-85
2023/03/19 01:20:12;;;;;;;0.10;0.10;;;11.40;99.90;;;;;;5033015;28;20221;-84
2023/03/19 01:22:42;;;;;;;0.10;0.10;;;11.40;99.90;;;;;;5016699;28;20188;-85
2023/03/19 01:25:11;;;;;;;0.10;0.10;;;11.40;99.90;;;;;;5014777;28;20194;-86
2023/03/19 01:27:37;;;;;;;0.10;0.10;;;11.30;99.90;;;;;;5014741;28;20202;-86
2023/03/19 01:30:02;;;;;;;0.10;0.10;;;11.30;99.90;;;;;;5014711;28;20639;-85
2023/03/19 01:32:28;;;;;;;0.10;0.10;;;11.30;99.90;;;;;;5016165;28;20556;-85
2023/03/19 01:34:54;;;;;;;0.10;0.10;;;11.40;99.90;;;;;;5014667;28;20217;-85
2023/03/19 01:37:20;;;;;;;0.10;0.10;;;11.30;99.90;;;;;;5024353;28;20197;-85
2023/03/19 01:39:45;;;;;;;0.10;0.10;;;11.20;99.90;;;;;;5022998;28;20671;-84
2023/03/19 01:42:12;;;;;;;0.10;0.10;;;11.20;99.90;;;;;;5015925;28;20218;-85
2023/03/19 01:44:40;;;;;;;0.10;0.10;;;11.10;99.90;;;;;;5015886;28;20208;-86
2023/03/19 01:47:16;;;;;;;0.00;0.00;;;11.20;99.90;;;;;;5015147;28;20193;-88
2023/03/19 01:49:46;;;;;;;0.10;0.10;;;11.30;99.90;;;;;;5032461;28;20212;-87
2023/03/19 01:52:13;;;;;;;0.10;0.10;;;11.40;99.90;;;;;;5016394;28;20201;-86
2023/03/19 01:54:40;;;;;;;0.10;0.10;;;11.40;99.90;;;;;;5014044;28;20293;-88
2023/03/19 01:57:09;;;;;;;0.10;0.10;;;11.40;99.90;;;;;;5014666;28;20201;-88
2023/03/19 01:59:45;;;;;;;0.10;0.10;;;11.50;99.90;;;;;;5013314;28;20222;-86
2023/03/19 02:02:22;;;;;;;0.10;0.10;;;11.60;99.90;;;;;;5013774;28;20195;-85
2023/03/19 02:04:52;;;;;;;0.10;0.10;;;11.60;99.90;;;;;;5014044;28;20195;-85
2023/03/19 02:07:18;;;;;;;0.10;0.10;;;11.60;99.90;;;;;;5032265;28;20190;-84
2023/03/19 02:09:44;;;;;;;0.10;0.10;;;11.60;99.90;;;;;;5030970;28;20632;-84
2023/03/19 02:12:11;;;;;;;0.10;0.10;;;11.70;99.90;;;;;;5014247;28;20203;-85
2023/03/19 02:14:36;;;;;;;0.00;0.00;;;11.60;99.90;;;;;;5031659;28;20256;-86
2023/03/19 02:17:02;;;;;;;0.10;0.10;;;11.50;99.90;;;;;;5032729;28;20187;-86
2023/03/19 02:19:41;;;;;;;0.10;0.10;;;11.40;99.90;;;;;;5013869;28;20680;-85
2023/03/19 02:22:09;;;;;;;0.10;0.10;;;11.40;99.90;;;;;;5030823;28;20611;-85
2023/03/19 02:24:40;;;;;;;0.10;0.10;;;11.30;99.90;;;;;;5021954;28;20189;-85
2023/03/19 02:27:08;;;;;;;0.10;0.10;;;11.30;99.90;;;;;;5014820;28;20182;-86
2023/03/19 02:29:34;;;;;;;0.10;0.10;;;11.20;99.90;;;;;;5022885;28;20329;-85
2023/03/19 02:31:59;;;;;;;0.10;0.10;;;11.20;99.90;;;;;;5013987;28;20272;-86
2023/03/19 02:34:25;;;;;;;0.10;0.10;;;11.20;99.90;;;;;;5015256;28;20202;-85
2023/03/19 02:36:56;;;;;;;0.10;0.10;;;11.10;99.90;;;;;;5015331;28;20177;-85
2023/03/19 02:39:25;;;;;;;0.10;0.10;;;11.10;99.90;;;;;;5032462;28;20221;-84
2023/03/19 02:41:53;;;;;;;0.10;0.10;;;11.00;99.90;;;;;;5029503;28;20174;-85
2023/03/19 02:44:19;;;;;;;0.10;0.10;;;10.60;99.90;;;;;;5016246;28;20248;-86
2023/03/19 02:46:45;;;;;;;0.10;0.10;;;10.60;99.90;;;;;;5015380;28;20214;-86
2023/03/19 02:49:11;;;;;;;0.10;0.10;;;10.70;99.90;;;;;;5031766;28;20229;-84
2023/03/19 02:51:36;;;;;;;0.10;0.10;;;10.80;99.90;;;;;;5013737;28;21159;-85
2023/03/19 02:54:02;;;;;;;0.10;0.10;;;10.90;99.90;;;;;;5014689;28;21941;-84
2023/03/19 02:56:28;;;;;;;0.10;0.10;;;10.90;99.90;;;;;;5014553;28;20659;-86
2023/03/19 02:58:54;;;;;;;0.10;0.10;;;10.90;99.90;;;;;;5015709;28;20200;-84
2023/03/19 03:01:20;;;;;;;0.10;0.10;;;11.00;99.90;;;;;;5017626;28;20186;-85
2023/03/19 03:03:46;;;;;;;0.10;0.10;;;11.00;99.90;;;;;;5016858;28;20187;-85
2023/03/19 03:06:12;;;;;;;0.10;0.10;;;11.00;99.90;;;;;;5018466;28;20186;-85
2023/03/19 03:08:38;;;;;;;0.10;0.10;;;11.00;99.90;;;;;;5036392;28;20202;-86
2023/03/19 03:11:04;;;;;;;0.10;0.10;;;10.90;99.90;;;;;;5019887;28;20191;-86
2023/03/19 03:13:29;;;;;;;0.10;0.10;;;11.00;99.90;;;;;;5043371;28;20199;-86
2023/03/19 03:15:55;;;;;;;0.10;0.10;;;10.90;99.90;;;;;;5024661;28;20643;-85
2023/03/19 03:18:21;;;;;;;0.10;0.10;;;10.90;99.90;;;;;;5019540;28;20269;-85
2023/03/19 03:20:46;;;;;;;0.10;0.10;;;10.70;99.90;;;;;;5019304;28;20685;-85
2023/03/19 03:23:12;;;;;;;0.10;0.10;;;10.60;99.90;;;;;;5020541;28;20213;-84
2023/03/19 03:25:38;;;;;;;0.10;0.10;;;10.70;99.90;;;;;;5021019;28;20274;-86
2023/03/19 03:28:03;;;;;;;0.10;0.10;;;10.80;99.90;;;;;;5018535;28;20195;-85
2023/03/19 03:30:29;;;;;;;0.10;0.10;;;10.90;99.90;;;;;;5018958;28;20232;-85
2023/03/19 03:32:55;;;;;;;0.10;0.10;;;10.90;99.90;;;;;;5020074;28;20190;-85
2023/03/19 03:35:21;;;;;;;0.10;0.10;;;11.00;99.90;;;;;;5018947;28;20213;-86
2023/03/19 03:37:50;;;;;;;0.10;0.10;;;11.00;99.90;;;;;;5020066;28;20658;-85
2023/03/19 03:40:16;;;;;;;0.10;0.10;;;11.10;99.90;;;;;;5024069;28;20369;-86
2023/03/19 03:42:43;;;;;;;0.10;0.10;;;11.10;99.90;;;;;;5020858;28;20186;-85
2023/03/19 03:45:09;;;;;;;0.10;0.10;;;11.10;99.90;;;;;;5019859;28;20217;-85
2023/03/19 03:47:36;;;;;;;0.10;0.10;;;10.90;99.90;;;;;;5019298;28;20201;-84
2023/03/19 03:50:03;;;;;;;0.10;0.10;;;10.90;99.90;;;;;;5020003;28;20209;-85
2023/03/19 03:52:30;;;;;;;0.10;0.10;;;10.80;99.90;;;;;;5019512;28;20213;-86
2023/03/19 03:54:57;;;;;;;0.10;0.10;;;10.70;99.90;;;;;;5020114;28;20580;-87
2023/03/19 03:57:23;;;;;;;0.10;0.10;;;10.70;99.90;;;;;;5038365;28;20186;-85
2023/03/19 03:59:49;;;;;;;0.00;0.00;;;10.60;99.90;;;;;;5021564;28;20198;-86
2023/03/19 04:02:14;;;;;;;0.10;0.10;;;10.60;99.90;;;;;;5020347;28;20197;-87
2023/03/19 04:04:40;;;;;;;0.10;0.10;;;10.60;99.90;;;;;;5019974;28;20209;-86
2023/03/19 04:07:06;;;;;;;0.10;0.10;;;10.50;99.90;;;;;;5020852;28;20216;-86
2023/03/19 04:09:32;;;;;;;0.10;0.10;;;10.50;99.90;;;;;;5036510;28;20216;-87
2023/03/19 04:11:57;;;;;;;0.10;0.10;;;10.50;99.90;;;;;;5015426;28;20200;-86
2023/03/19 04:14:23;;;;;;;0.00;0.00;;;10.50;99.90;;;;;;5018067;28;20215;-85
2023/03/19 04:16:48;;;;;;;0.10;0.10;;;10.30;99.90;;;;;;5017609;28;20186;-86
2023/03/19 04:19:14;;;;;;;0.10;0.10;;;10.30;99.90;;;;;;5017265;28;20203;-87
2023/03/19 04:21:40;;;;;;;0.10;0.10;;;10.30;99.90;;;;;;5020360;28;20195;-87
2023/03/19 04:24:06;;;;;;;0.10;0.10;;;10.10;99.90;;;;;;5020347;28;20194;-86
2023/03/19 04:26:31;;;;;;;0.10;0.10;;;10.00;99.90;;;;;;5029868;28;20201;-86
2023/03/19 04:28:57;;;;;;;0.10;0.10;;;9.90;99.90;;;;;;5017764;28;20205;-86
2023/03/19 04:31:23;;;;;;;0.10;0.10;;;9.90;99.90;;;;;;5019808;28;20601;-86
2023/03/19 04:33:49;;;;;;;0.10;0.10;;;9.90;99.90;;;;;;5018224;28;20210;-84
2023/03/19 04:36:16;;;;;;;0.10;0.10;;;9.80;99.90;;;;;;5022093;28;20202;-85
2023/03/19 04:38:42;;;;;;;0.10;0.10;;;9.70;99.90;;;;;;5037600;28;20209;-85
2023/03/19 04:41:07;;;;;;;0.10;0.10;;;9.60;99.90;;;;;;5020482;28;20194;-86
2023/03/19 04:43:33;;;;;;;0.00;0.00;;;9.60;99.90;;;;;;5017564;28;20178;-86
2023/03/19 04:45:59;;;;;;;0.10;0.10;;;9.60;99.90;;;;;;5034271;28;20266;-85
2023/03/19 04:48:25;;;;;;;0.10;0.10;;;9.60;99.90;;;;;;5025820;28;20738;-85
2023/03/19 04:50:52;;;;;;;0.00;0.00;;;9.70;99.90;;;;;;5015129;28;20205;-86
2023/03/19 04:53:19;;;;;;;0.10;0.10;;;9.80;99.90;;;;;;5017786;28;20197;-86
2023/03/19 04:55:46;;;;;;;0.10;0.10;;;9.90;99.90;;;;;;5034763;28;20259;-87
2023/03/19 04:58:11;;;;;;;0.10;0.10;;;9.90;99.90;;;;;;5016665;28;20186;-86
2023/03/19 05:00:37;;;;;;;0.10;0.10;;;9.90;99.90;;;;;;5014172;28;20285;-85
2023/03/19 05:03:03;;;;;;;0.10;0.10;;;9.90;99.90;;;;;;5014457;28;20886;-86
2023/03/19 05:05:28;;;;;;;0.10;0.10;;;9.80;99.90;;;;;;5014921;28;20560;-86
2023/03/19 05:07:56;;;;;;;0.10;0.10;;;9.80;99.90;;;;;;5019223;28;20409;-86
2023/03/19 05:10:22;;;;;;;0.10;0.10;;;9.80;99.90;;;;;;5017494;28;21137;-84
2023/03/19 05:12:48;;;;;;;0.10;0.10;;;9.80;99.90;;;;;;5014678;28;20189;-84
2023/03/19 05:15:14;;;;;;;0.10;0.10;;;9.70;99.90;;;;;;5033401;28;20680;-84
2023/03/19 05:17:40;;;;;;;0.00;0.00;;;9.40;99.90;;;;;;5024882;28;20182;-85
2023/03/19 05:20:06;;;;;;;0.10;0.10;;;9.20;99.90;;;;;;5015314;28;20532;-85
2023/03/19 05:22:33;;;;;;;0.10;0.10;;;9.00;99.90;;;;;;5013810;28;20191;-85
2023/03/19 05:24:58;;;;;;;0.10;0.10;;;8.90;99.90;;;;;;5015243;28;20201;-86
2023/03/19 05:27:24;;;;;;;0.10;0.10;;;8.90;99.90;;;;;;5035078;28;20563;-85
2023/03/19 05:29:49;;;;;;;0.10;0.10;;;8.80;99.90;;;;;;5014254;28;20225;-85
2023/03/19 05:32:15;;;;;;;0.10;0.10;;;8.90;99.90;;;;;;5014338;28;20197;-84
2023/03/19 05:34:41;;;;;;;0.10;0.10;;;9.00;99.90;;;;;;5014277;28;20210;-84
2023/03/19 05:37:07;;;;;;;0.10;0.10;;;9.10;99.90;;;;;;5015207;28;20188;-84
2023/03/19 05:39:33;;;;;;;0.10;0.10;;;9.20;99.90;;;;;;5020696;28;20199;-84
2023/03/19 05:41:58;;;;;;;0.10;0.10;;;9.10;99.90;;;;;;5041973;28;21258;-84
2023/03/19 05:44:24;;;;;;;0.10;0.10;;;9.20;99.90;;;;;;5019402;28;20194;-84
2023/03/19 05:46:49;;;;;;;0.10;0.10;;;9.30;99.90;;;;;;5021876;28;20202;-84
2023/03/19 05:49:15;;;;;;;0.10;0.10;;;9.50;99.90;;;;;;5021854;28;20215;-84
2023/03/19 05:51:40;;;;;;;0.10;0.10;;;9.60;99.90;;;;;;5020482;28;20208;-85
2023/03/19 05:54:06;;;;;;;0.10;0.10;;;9.70;99.90;;;;;;5020228;28;20210;-83
2023/03/19 05:56:32;;;;;;;0.10;0.10;;;9.80;99.90;;;;;;5016850;28;20726;-84
2023/03/19 05:58:57;;;;;;;0.10;0.10;;;9.80;99.90;;;;;;5013964;28;20205;-85
2023/03/19 06:01:23;;;;;;;0.10;0.10;;;9.80;99.90;;;;;;5015717;28;20660;-83
2023/03/19 06:03:48;;;;;;;0.10;0.10;;;9.70;99.90;;;;;;5036198;28;20269;-86
2023/03/19 06:06:15;;;;;;;0.10;0.10;;;9.70;99.90;;;;;;5016751;28;20178;-85
2023/03/19 06:08:41;;;;;;;0.10;0.10;;;9.70;99.90;;;;;;5014414;28;20301;-86
2023/03/19 06:11:07;;;;;;;0.10;0.10;;;9.70;99.90;;;;;;5016177;28;20236;-85
2023/03/19 06:13:33;;;;;;;0.10;0.10;;;9.80;99.90;;;;;;5015284;28;20277;-86
2023/03/19 06:16:00;;;;;;;0.10;0.10;;;9.90;99.90;;;;;;5016762;28;20261;-85
2023/03/19 06:18:25;;;;;;;0.10;0.10;;;9.90;99.90;;;;;;5018148;28;20185;-83
2023/03/19 06:20:51;;;;;;;0.10;0.10;;;9.90;99.90;;;;;;5016136;28;20204;-85
2023/03/19 06:23:17;;;;;;;0.10;0.10;;;9.70;99.90;;;;;;5033146;28;20224;-84
2023/03/19 06:25:43;;;;;;;0.10;0.10;;;9.70;99.90;;;;;;5015410;28;20197;-85
2023/03/19 06:28:09;;;;;;;0.10;0.10;;;9.80;99.90;;;;;;5014915;28;21661;-85
2023/03/19 06:30:35;;;;;;;0.10;0.10;;;9.80;99.90;;;;;;5011866;28;20984;-85
2023/03/19 06:33:00;;;;;;;0.10;0.10;;;10.00;99.90;;;;;;5012676;28;20190;-82
2023/03/19 06:35:26;;;;;;;0.10;0.10;;;10.00;99.90;;;;;;5019097;28;20220;-82
2023/03/19 06:37:52;;;;;;;0.10;0.10;;;9.90;99.90;;;;;;5039017;28;20229;-83
2023/03/19 06:40:18;;;;;;;0.10;0.10;;;9.70;99.90;;;;;;5021188;28;20208;-82
2023/03/19 06:42:45;;;;;;;0.10;0.10;;;9.60;99.90;;;;;;5021174;28;20646;-82
2023/03/19 06:45:12;;;;;;;0.10;0.10;;;9.50;99.90;;;;;;5019576;28;20772;-83
2023/03/19 06:47:40;;;;;;;0.00;0.00;;;9.50;99.90;;;;;;5020084;28;20192;-82
2023/03/19 06:50:07;;;;;;;0.10;0.10;;;9.40;99.90;;;;;;5027774;28;20220;-82
2023/03/19 06:52:32;;;;;;;0.10;0.10;;;9.40;99.90;;;;;;5023295;28;20215;-82
2023/03/19 06:54:59;;;;;;;0.10;0.10;;;9.50;99.90;;;;;;5024103;28;20205;-83
2023/03/19 06:57:25;;;;;;;0.10;0.10;;;9.50;99.90;;;;;;5023032;28;20255;-83
2023/03/19 06:59:50;;;;;;;0.10;0.10;;;9.70;99.90;;;;;;5024561;28;20202;-82
2023/03/19 07:02:16;;;;;;;0.10;0.10;;;9.80;99.90;;;;;;5021394;28;20186;-82
2023/03/19 07:04:41;;;;;;;0.10;0.10;;;9.70;99.90;;;;;;5024195;28;20237;-82
2023/03/19 07:07:07;;;;;;;0.10;0.10;;;9.70;99.90;;;;;;5027186;28;20280;-83
2023/03/19 07:09:33;;;;;;;0.10;0.10;;;9.90;99.90;;;;;;5026980;28;20228;-82
2023/03/19 07:11:58;;;;;;;0.10;0.10;;;10.00;99.90;;;;;;5024246;28;20239;-82
2023/03/19 07:14:24;;;;;;;0.00;0.00;;;10.20;99.90;;;;;;5027082;28;20296;-84
2023/03/19 07:16:50;;;;;;;0.10;0.10;;;10.20;99.90;;;;;;5042115;28;20686;-83
2023/03/19 07:19:15;;;;;;;0.10;0.10;;;10.10;99.90;;;;;;5025882;28;20285;-84
2023/03/19 07:21:41;;;;;;;0.10;0.10;;;10.30;99.90;;;;;;5024678;28;20212;-84
2023/03/19 07:24:07;;;;;;;0.10;0.10;;;10.50;99.90;;;;;;5025559;28;20208;-84
2023/03/19 07:26:32;;;;;;;0.10;0.10;;;10.50;99.90;;;;;;5023753;28;20209;-83
2023/03/19 07:28:58;;;;;;;0.10;0.10;;;10.50;99.90;;;;;;5029430;28;20213;-84
2023/03/19 07:31:24;;;;;;;0.10;0.10;;;10.50;99.90;;;;;;5034352;28;20217;-87
2023/03/19 07:33:50;;;;;;;0.10;0.10;;;10.70;99.90;;;;;;5015740;28;20745;-85
2023/03/19 07:36:15;;;;;;;0.10;0.10;;;10.70;99.90;;;;;;5019504;28;20210;-86
2023/03/19 07:38:41;;;;;;;0.10;0.10;;;10.70;99.90;;;;;;5037428;28;20206;-85
2023/03/19 07:41:07;;;;;;;0.10;0.10;;;10.60;99.90;;;;;;5019712;28;20260;-84
2023/03/19 07:43:32;;;;;;;0.10;0.10;;;10.60;99.90;;;;;;5019810;28;20725;-86
2023/03/19 07:45:58;;;;;;;0.10;0.10;;;10.90;99.90;;;;;;5035542;28;20605;-85
2023/03/19 07:48:24;;;;;;;0.00;0.00;;;11.00;99.90;;;;;;5019933;28;20182;-86
2023/03/19 07:50:50;;;;;;;0.10;0.10;;;10.90;99.90;;;;;;5035416;28;20281;-87
2023/03/19 07:53:16;;;;;;;0.10;0.10;;;11.00;99.90;;;;;;5033491;28;20246;-87
2023/03/19 07:55:42;;;;;;;0.10;0.10;;;11.30;99.90;;;;;;5020505;28;20300;-83
2023/03/19 07:58:07;;;;;;;0.10;0.10;;;11.60;99.90;;;;;;5021619;28;20198;-83
2023/03/19 08:00:33;;;;;;;0.10;0.10;;;11.70;99.90;;;;;;5020767;28;20202;-88
2023/03/19 08:02:58;;;;;;;0.10;0.10;;;11.70;99.90;;;;;;5035772;28;20271;-87
2023/03/19 08:05:24;;;;;;;0.10;0.10;;;11.40;99.90;;;;;;5009456;28;20218;-85
2023/03/19 08:07:50;;;;;;;0.10;0.10;;;11.30;99.90;;;;;;5010533;28;20236;-85
2023/03/19 08:10:16;;;;;;;0.10;0.10;;;11.30;99.90;;;;;;5011767;28;20228;-85
2023/03/19 08:12:42;;;;;;;0.10;0.10;;;11.40;99.90;;;;;;5020356;28;20190;-85
2023/03/19 08:15:09;;;;;;;0.10;0.10;;;11.60;99.90;;;;;;5016488;28;20229;-85
2023/03/19 08:17:37;;;;;;;0.10;0.10;;;11.60;99.90;;;;;;5017195;28;20217;-85
2023/03/19 08:20:07;;;;;;;0.07;0.07;;;11.90;99.90;;;;;;5015507;28;20244;-85
2023/03/19 08:22:37;;;;;;;0.10;0.10;;;12.10;99.90;;;;;;5032108;28;20197;-86
2023/03/19 08:25:04;;;;;;;0.10;0.10;;;12.40;99.90;;;;;;5013854;28;20191;-85
2023/03/19 08:27:30;;;;;;;0.10;0.10;;;12.60;99.90;;;;;;5019914;28;20224;-85
2023/03/19 08:29:57;;;;;;;0.10;0.10;;;12.80;99.90;;;;;;5010517;28;20270;-85
2023/03/19 08:32:23;;;;;;;0.10;0.10;;;13.00;99.90;;;;;;5013057;28;20194;-85
2023/03/19 08:34:49;;;;;;;0.10;0.10;;;13.20;99.90;;;;;;5036133;28;20215;-84
2023/03/19 08:37:15;;;;;;;0.00;0.00;;;13.30;99.90;;;;;;5015078;28;20195;-85
2023/03/19 08:39:41;;;;;;;0.10;0.10;;;13.40;99.90;;;;;;5011650;28;20216;-84
2023/03/19 08:42:06;;;;;;;0.10;0.10;;;13.40;99.90;;;;;;5031576;28;20768;-82
2023/03/19 08:44:32;;;;;;;0.10;0.10;;;13.60;99.90;;;;;;5012649;28;20423;-84
2023/03/19 08:46:57;;;;;;;0.10;0.10;;;13.80;99.90;;;;;;5033682;28;20680;-84
2023/03/19 08:49:23;;;;;;;0.03;0.03;;;14.00;99.90;;;;;;5016454;28;20234;-84
2023/03/19 08:51:49;;;;;;;0.00;0.00;;;14.10;99.90;;;;;;5015842;28;20204;-84
2023/03/19 08:54:16;;;;;;;0.10;0.10;;;14.20;99.90;;;;;;5033019;28;20713;-84
2023/03/19 08:56:42;;;;;;;0.10;0.10;;;14.30;99.90;;;;;;5012051;28;20243;-83
2023/03/19 08:59:08;;;;;;;0.03;0.03;;;14.30;99.90;;;;;;5034854;28;20229;-83
2023/03/19 09:01:33;;;;;;;0.10;0.10;;;14.30;99.90;;;;;;5025444;28;20192;-84
2023/03/19 09:03:59;;;;;;;0.10;0.10;;;14.40;99.90;;;;;;5014326;28;21261;-84
2023/03/19 09:06:24;;;;;;;0.10;0.10;;;14.40;99.90;;;;;;5014475;28;20190;-84
2023/03/19 09:08:50;;;;;;;0.10;0.10;;;14.30;99.90;;;;;;5013505;28;20323;-84
2023/03/19 09:11:16;;;;;;;0.10;0.10;;;14.60;99.90;;;;;;5014904;28;20194;-82
2023/03/19 09:13:42;;;;;;;0.10;0.10;;;14.80;99.90;;;;;;5012331;28;20243;-84
2023/03/19 09:16:08;;;;;;;0.10;0.10;;;15.00;99.90;;;;;;5014878;28;20187;-84
2023/03/19 09:18:34;;;;;;;0.10;0.10;;;15.30;99.90;;;;;;5031588;28;20182;-82
2023/03/19 09:21:00;;;;;;;0.10;0.10;;;15.20;99.90;;;;;;5027842;28;20288;-82
2023/03/19 09:23:26;;;;;;;0.10;0.10;;;15.40;99.90;;;;;;5038570;28;20189;-82
2023/03/19 09:25:52;;;;;;;0.10;0.10;;;15.50;99.90;;;;;;5014822;28;20194;-84
2023/03/19 09:28:18;;;;;;;0.10;0.10;;;15.50;99.90;;;;;;5016370;28;20252;-82
2023/03/19 09:30:48;;;;;;;0.10;0.10;;;15.60;99.90;;;;;;5014199;28;20218;-85
2023/03/19 09:33:15;;;;;;;0.10;0.10;;;15.60;99.90;;;;;;5015665;28;20212;-84
2023/03/19 09:35:41;;;;;;;0.00;0.00;;;15.70;99.90;;;;;;5033464;28;20574;-86
2023/03/19 09:38:07;;;;;;;0.00;0.00;;;15.60;99.90;;;;;;5013544;28;20178;-84
2023/03/19 09:40:45;;;;;;;0.10;0.10;;;15.70;99.90;;;;;;5014506;28;20769;-84
2023/03/19 09:43:41;;;;;;;0.10;0.10;;;15.30;99.90;;;;;;5013234;28;20190;-83
2023/03/19 09:46:23;;;;;;;0.10;0.10;;;15.10;99.90;;;;;;5015055;28;20194;-83
2023/03/19 09:48:58;;;;;;;0.10;0.10;;;15.10;99.90;;;;;;5027703;28;20217;-83
2023/03/19 09:51:36;;;;;;;0.10;0.10;;;15.20;99.90;;;;;;5013959;28;20204;-83
2023/03/19 09:54:11;;;;;;;0.10;0.10;;;15.10;99.90;;;;;;4998253;28;20213;-83
2023/03/19 09:56:37;;;;;;;0.10;0.10;;;15.30;99.90;;;;;;5023741;28;20192;-83
2023/03/19 09:59:02;;;;;;;0.10;0.10;;;15.40;99.90;;;;;;5035410;28;20420;-83
2023/03/19 10:01:34;;;;;;;0.10;0.10;;;14.90;99.90;;;;;;5016946;28;20538;-83
2023/03/19 10:04:31;;;;;;;0.10;0.10;;;14.60;99.90;;;;;;5017127;28;20186;-84
2023/03/19 10:07:07;;;;;;;0.10;0.10;;;14.80;99.90;;;;;;5034998;28;20277;-83
2023/03/19 10:09:47;;;;;;;0.10;0.10;;;15.10;99.90;;;;;;5020589;28;21238;-84
2023/03/19 10:12:38;;;;;;;0.10;0.10;;;15.30;99.90;;;;;;5018678;28;20189;-84
2023/03/19 10:15:16;;;;;;;0.10;0.10;;;15.50;99.90;;;;;;5016341;28;20214;-84
2023/03/19 10:17:52;;;;;;;0.10;0.10;;;15.60;99.90;;;;;;5015905;28;20182;-84
2023/03/19 10:20:50;;;;;;;0.10;0.10;;;15.80;99.90;;;;;;5017696;28;20213;-84
2023/03/19 10:23:28;;;;;;;0.10;0.10;;;15.80;99.90;;;;;;5018135;28;20245;-83
2023/03/19 10:25:57;;;;;;;0.10;0.10;;;15.90;99.90;;;;;;5017601;28;20224;-83
2023/03/19 10:28:25;;;;;;;0.10;0.10;;;15.90;99.90;;;;;;5034108;28;20281;-83
2023/03/19 10:31:27;;;;;;;0.10;0.10;;;15.90;99.90;;;;;;5018695;28;20189;-82
2023/03/19 10:34:12;;;;;;;0.10;0.10;;;15.90;99.90;;;;;;5028905;28;20206;-83
2023/03/19 10:36:38;;;;;;;0.10;0.10;;;15.90;99.90;;;;;;5036626;28;20837;-83
2023/03/19 10:39:06;;;;;;;0.10;0.10;;;15.80;99.90;;;;;;5014916;28;20222;-82
2023/03/19 10:41:42;;;;;;;0.10;0.10;;;15.90;99.90;;;;;;5016191;28;20267;-84
2023/03/19 10:44:37;;;;;;;0.10;0.10;;;15.90;99.90;;;;;;5030505;28;20189;-83
2023/03/19 10:47:11;;;;;;;0.10;0.10;;;16.10;99.90;;;;;;5031807;28;20215;-83
2023/03/19 10:49:37;;;;;;;0.10;0.10;;;16.00;99.90;;;;;;5032353;28;20240;-83
2023/03/19 10:52:03;;;;;;;0.10;0.10;;;16.00;99.90;;;;;;5013606;28;20852;-83
2023/03/19 10:54:29;;;;;;;0.10;0.10;;;16.00;99.90;;;;;;5018940;28;20358;-82
2023/03/19 10:57:00;;;;;;;0.10;0.10;;;16.20;99.90;;;;;;5022628;28;20204;-83
2023/03/19 10:59:35;;;;;;;0.10;0.10;;;16.40;99.90;;;;;;5019010;28;20848;-84
2023/03/19 11:02:15;;;;;;;0.10;0.10;;;16.40;99.90;;;;;;5034688;28;20185;-83
2023/03/19 11:04:40;;;;;;;0.10;0.10;;;16.50;99.90;;;;;;5025842;28;20374;-83
2023/03/19 11:07:32;;;;;;;0.00;0.00;;;16.60;99.90;;;;;;5019439;28;20178;-82
2023/03/19 11:09:57;;;;;;;0.10;0.10;;;16.30;99.90;;;;;;5012784;28;20356;-83
2023/03/19 11:12:36;;;;;;;0.10;0.10;;;16.30;99.90;;;;;;5035740;28;20276;-83
2023/03/19 11:15:04;;;;;;;0.10;0.10;;;16.30;99.90;;;;;;5017442;28;20205;-83
2023/03/19 11:17:47;;;;;;;0.10;0.10;;;16.10;99.90;;;;;;5017292;28;20182;-84
2023/03/19 11:20:27;;;;;;;0.10;0.10;;;15.80;99.90;;;;;;5018272;28;20201;-83
2023/03/19 11:22:55;;;;;;;0.10;0.10;;;15.70;99.90;;;;;;5040036;28;20220;-83
2023/03/19 11:25:25;;;;;;;0.10;0.10;;;15.60;99.90;;;;;;5032648;28;21674;-83
2023/03/19 11:28:23;;;;;;;0.10;0.10;;;15.50;99.90;;;;;;5020618;28;20286;-83
2023/03/19 11:31:17;;;;;;;0.10;0.10;;;15.50;99.90;;;;;;4999902;28;20190;-83
2023/03/19 11:33:46;;;;;;;0.10;0.10;;;15.50;99.90;;;;;;5021146;28;20253;-83
2023/03/19 11:36:30;;;;;;;0.10;0.10;;;15.30;99.90;;;;;;5020105;28;20218;-83
2023/03/19 11:39:29;;;;;;;0.10;0.10;;;15.50;99.90;;;;;;5039902;28;20209;-83
2023/03/19 11:42:44;;;;;;;0.10;0.10;;;15.70;99.90;;;;;;5021019;28;20304;-82
2023/03/19 11:45:28;;;;;;;0.10;0.10;;;16.20;99.90;;;;;;5024923;28;20197;-84
2023/03/19 11:48:12;;;;;;;0.10;0.10;;;16.50;99.90;;;;;;5019562;28;20244;-83
2023/03/19 11:50:58;;;;;;;0.10;0.10;;;16.70;99.90;;;;;;5020128;28;20221;-83
2023/03/19 11:53:30;;;;;;;0.10;0.10;;;16.80;99.90;;;;;;5034087;28;20194;-83
2023/03/19 11:56:08;;;;;;;0.10;0.10;;;16.60;99.90;;;;;;5021500;28;20259;-83
2023/03/19 11:59:16;;;;;;;0.10;0.10;;;16.40;99.90;;;;;;5044994;28;20899;-83
2023/03/19 12:02:13;;;;;;;0.10;0.10;;;16.30;99.90;;;;;;5021839;28;20206;-83
2023/03/19 12:04:54;;;;;;;0.07;0.07;;;15.80;99.90;;;;;;5028799;28;20187;-82
2023/03/19 12:07:38;;;;;;;0.10;0.10;;;15.60;99.90;;;;;;5023438;28;20192;-83
2023/03/19 12:10:41;;;;;;;0.10;0.10;;;15.40;99.90;;;;;;5015221;28;20763;-83
2023/03/19 12:13:21;;;;;;;0.10;0.10;;;15.30;99.90;;;;;;5035726;28;20600;-84
2023/03/19 12:16:09;;;;;;;0.10;0.10;;;15.20;99.90;;;;;;5033484;28;20572;-86
2023/03/19 12:18:52;;;;;;;0.10;0.10;;;15.10;99.90;;;;;;5016084;28;20283;-85
2023/03/19 12:21:52;;;;;;;0.10;0.10;;;15.00;99.90;;;;;;5015662;28;20591;-87
2023/03/19 12:24:51;;;;;;;0.03;0.03;;;14.60;99.90;;;;;;5017692;28;20562;-87
2023/03/19 12:27:35;;;;;;;0.10;0.10;;;14.50;99.90;;;;;;5019294;28;20653;-88
2023/03/19 12:30:20;;;;;;;0.10;0.10;;;14.40;99.90;;;;;;5019341;28;20205;-87
2023/03/19 12:33:18;;;;;;;0.10;0.10;;;14.40;99.90;;;;;;5018752;28;20596;-87
2023/03/19 12:35:48;;;;;;;0.10;0.10;;;14.30;99.90;;;;;;5016066;28;20215;-87
2023/03/19 12:38:29;;;;;;;0.10;0.10;;;14.20;99.90;;;;;;5019255;28;20187;-86
2023/03/19 12:41:04;;;;;;;0.10;0.10;;;14.00;99.90;;;;;;5017149;28;20186;-87
2023/03/19 12:43:37;;;;;;;0.10;0.10;;;13.80;99.90;;;;;;5016385;28;20272;-86
2023/03/19 12:46:26;;;;;;;0.10;0.10;;;13.70;99.90;;;;;;5037668;28;20190;-89
2023/03/19 12:48:55;;;;;;;0.10;0.10;;;13.60;99.90;;;;;;5017616;28;20307;-86
2023/03/19 12:51:27;;;;;;;0.10;0.10;;;13.60;99.90;;;;;;5017557;28;22615;-86
2023/03/19 12:54:10;;;;;;;0.10;0.10;;;13.60;99.90;;;;;;5024747;28;20578;-86
2023/03/19 12:56:59;;;;;;;0.10;0.10;;;13.70;99.90;;;;;;5034175;28;20181;-87
2023/03/19 12:59:43;;;;;;;0.10;0.10;;;13.70;99.90;;;;;;5015534;28;20217;-86
2023/03/19 13:02:33;;;;;;;0.10;0.10;;;13.60;99.90;;;;;;5033230;28;20187;-86